sensor_id;sensor_type;location;lat;lon;timestamp;P1;durP1;ratioP1;P2;durP2;ratioP2
25009;SDS011;13026;49.486;10.926;2022-07-23T00:00:09;11.20;;;7.85;;
25009;SDS011;13026;49.486;10.926;2022-07-23T00:02:36;7.93;;;7.10;;
25009;SDS011;13026;49.486;10.926;2022-07-23T00:05:01;9.65;;;7.68;;
25009;SDS011;13026;49.486;10.926;2022-07-23T00:07:28;10.63;;;8.13;;
25009;SDS011;13026;49.486;10.926;2022-07-23T00:09:53;13.18;;;7.57;;
25009;SDS011;13026;49.486;10.926;2022-07-23T00:12:19;10.00;;;7.38;;
25009;SDS011;13026;49.486;10.926;2022-07-23T00:14:45;8.57;;;7.30;;
25009;SDS011;13026;49.486;10.926;2022-07-23T00:17:10;9.23;;;7.25;;
25009;SDS011;13026;49.486;10.926;2022-07-23T00:19:36;11.40;;;7.50;;
25009;SDS011;13026;49.486;10.926;2022-07-23T00:22:01;8.65;;;7.65;;
25009;SDS011;13026;49.486;10.926;2022-07-23T00:24:28;8.00;;;7.18;;
25009;SDS011;13026;49.486;10.926;2022-07-23T00:26:53;10.63;;;7.18;;
25009;SDS011;13026;49.486;10.926;2022-07-23T00:29:19;10.00;;;7.72;;
25009;SDS011;13026;49.486;10.926;2022-07-23T00:31:45;10.27;;;7.75;;
25009;SDS011;13026;49.486;10.926;2022-07-23T00:34:10;11.75;;;7.63;;
25009;SDS011;13026;49.486;10.926;2022-07-23T00:36:36;9.63;;;6.88;;
25009;SDS011;13026;49.486;10.926;2022-07-23T00:39:01;15.07;;;7.90;;
25009;SDS011;13026;49.486;10.926;2022-07-23T00:41:27;13.27;;;7.07;;
25009;SDS011;13026;49.486;10.926;2022-07-23T00:43:52;14.98;;;7.55;;
25009;SDS011;13026;49.486;10.926;2022-07-23T00:46:19;15.43;;;7.40;;
25009;SDS011;13026;49.486;10.926;2022-07-23T00:48:45;9.13;;;7.78;;
25009;SDS011;13026;49.486;10.926;2022-07-23T00:51:10;11.45;;;8.05;;
25009;SDS011;13026;49.486;10.926;2022-07-23T00:53:36;10.82;;;7.63;;
25009;SDS011;13026;49.486;10.926;2022-07-23T00:56:02;10.63;;;7.83;;
25009;SDS011;13026;49.486;10.926;2022-07-23T00:58:27;11.35;;;8.30;;
25009;SDS011;13026;49.486;10.926;2022-07-23T01:00:53;9.13;;;7.72;;
25009;SDS011;13026;49.486;10.926;2022-07-23T01:03:18;9.15;;;8.23;;
25009;SDS011;13026;49.486;10.926;2022-07-23T01:05:44;10.57;;;8.50;;
25009;SDS011;13026;49.486;10.926;2022-07-23T01:08:10;9.98;;;7.72;;
25009;SDS011;13026;49.486;10.926;2022-07-23T01:10:36;10.10;;;8.15;;
25009;SDS011;13026;49.486;10.926;2022-07-23T01:13:03;8.55;;;7.63;;
25009;SDS011;13026;49.486;10.926;2022-07-23T01:15:31;10.45;;;7.68;;
25009;SDS011;13026;49.486;10.926;2022-07-23T01:17:58;10.68;;;7.80;;
25009;SDS011;13026;49.486;10.926;2022-07-23T01:20:25;8.80;;;7.57;;
25009;SDS011;13026;49.486;10.926;2022-07-23T01:22:52;11.52;;;8.13;;
25009;SDS011;13026;49.486;10.926;2022-07-23T01:25:18;10.32;;;7.90;;
25009;SDS011;13026;49.486;10.926;2022-07-23T01:27:53;11.45;;;9.02;;
25009;SDS011;13026;49.486;10.926;2022-07-23T01:30:19;8.50;;;7.75;;
25009;SDS011;13026;49.486;10.926;2022-07-23T01:32:45;11.55;;;8.50;;
25009;SDS011;13026;49.486;10.926;2022-07-23T01:35:11;9.23;;;8.40;;
25009;SDS011;13026;49.486;10.926;2022-07-23T01:37:37;9.32;;;8.32;;
25009;SDS011;13026;49.486;10.926;2022-07-23T01:40:04;10.38;;;8.43;;
25009;SDS011;13026;49.486;10.926;2022-07-23T01:42:30;10.60;;;8.23;;
25009;SDS011;13026;49.486;10.926;2022-07-23T01:44:56;11.38;;;8.43;;
25009;SDS011;13026;49.486;10.926;2022-07-23T01:47:22;10.32;;;8.30;;
25009;SDS011;13026;49.486;10.926;2022-07-23T01:49:51;9.07;;;8.18;;
25009;SDS011;13026;49.486;10.926;2022-07-23T01:55:00;9.93;;;7.50;;
25009;SDS011;13026;49.486;10.926;2022-07-23T01:57:26;8.43;;;7.53;;
25009;SDS011;13026;49.486;10.926;2022-07-23T01:59:51;8.77;;;7.68;;
25009;SDS011;13026;49.486;10.926;2022-07-23T02:02:19;10.82;;;7.93;;
25009;SDS011;13026;49.486;10.926;2022-07-23T02:04:45;9.35;;;8.40;;
25009;SDS011;13026;49.486;10.926;2022-07-23T02:07:11;9.75;;;7.43;;
25009;SDS011;13026;49.486;10.926;2022-07-23T02:09:36;9.07;;;7.93;;
25009;SDS011;13026;49.486;10.926;2022-07-23T02:12:02;13.85;;;7.50;;
25009;SDS011;13026;49.486;10.926;2022-07-23T02:14:28;8.60;;;7.43;;
25009;SDS011;13026;49.486;10.926;2022-07-23T02:16:53;11.35;;;7.68;;
25009;SDS011;13026;49.486;10.926;2022-07-23T02:19:19;10.23;;;8.45;;
25009;SDS011;13026;49.486;10.926;2022-07-23T02:21:44;11.32;;;7.57;;
25009;SDS011;13026;49.486;10.926;2022-07-23T02:24:11;9.32;;;8.45;;
25009;SDS011;13026;49.486;10.926;2022-07-23T02:26:39;9.00;;;8.02;;
25009;SDS011;13026;49.486;10.926;2022-07-23T02:32:34;11.50;;;8.43;;
25009;SDS011;13026;49.486;10.926;2022-07-23T02:35:01;11.10;;;8.30;;
25009;SDS011;13026;49.486;10.926;2022-07-23T02:37:27;14.05;;;9.18;;
25009;SDS011;13026;49.486;10.926;2022-07-23T02:39:53;9.82;;;8.90;;
25009;SDS011;13026;49.486;10.926;2022-07-23T02:42:18;11.45;;;9.10;;
25009;SDS011;13026;49.486;10.926;2022-07-23T02:44:44;13.27;;;8.77;;
25009;SDS011;13026;49.486;10.926;2022-07-23T02:47:10;10.43;;;9.15;;
25009;SDS011;13026;49.486;10.926;2022-07-23T02:49:35;12.77;;;9.25;;
25009;SDS011;13026;49.486;10.926;2022-07-23T02:52:04;12.05;;;8.77;;
25009;SDS011;13026;49.486;10.926;2022-07-23T02:54:29;10.50;;;9.00;;
25009;SDS011;13026;49.486;10.926;2022-07-23T02:56:55;9.20;;;8.38;;
25009;SDS011;13026;49.486;10.926;2022-07-23T02:59:20;13.13;;;8.38;;
25009;SDS011;13026;49.486;10.926;2022-07-23T03:01:46;9.88;;;8.25;;
25009;SDS011;13026;49.486;10.926;2022-07-23T03:04:12;10.05;;;8.95;;
25009;SDS011;13026;49.486;10.926;2022-07-23T03:06:40;11.63;;;8.88;;
25009;SDS011;13026;49.486;10.926;2022-07-23T03:09:06;12.90;;;8.45;;
25009;SDS011;13026;49.486;10.926;2022-07-23T03:11:31;9.18;;;8.25;;
25009;SDS011;13026;49.486;10.926;2022-07-23T03:13:57;10.32;;;9.05;;
25009;SDS011;13026;49.486;10.926;2022-07-23T03:16:23;12.23;;;10.07;;
25009;SDS011;13026;49.486;10.926;2022-07-23T03:18:49;9.98;;;8.98;;
25009;SDS011;13026;49.486;10.926;2022-07-23T03:21:14;10.65;;;9.65;;
25009;SDS011;13026;49.486;10.926;2022-07-23T03:23:40;11.38;;;10.18;;
25009;SDS011;13026;49.486;10.926;2022-07-23T03:26:06;10.80;;;9.68;;
25009;SDS011;13026;49.486;10.926;2022-07-23T03:28:31;14.48;;;10.45;;
25009;SDS011;13026;49.486;10.926;2022-07-23T03:30:57;12.52;;;11.02;;
25009;SDS011;13026;49.486;10.926;2022-07-23T03:33:22;10.68;;;9.55;;
25009;SDS011;13026;49.486;10.926;2022-07-23T03:35:48;13.40;;;10.73;;
25009;SDS011;13026;49.486;10.926;2022-07-23T03:38:24;18.05;;;10.80;;
25009;SDS011;13026;49.486;10.926;2022-07-23T03:40:49;10.93;;;9.65;;
25009;SDS011;13026;49.486;10.926;2022-07-23T03:43:15;11.00;;;10.00;;
25009;SDS011;13026;49.486;10.926;2022-07-23T03:45:41;10.82;;;9.82;;
25009;SDS011;13026;49.486;10.926;2022-07-23T03:48:07;10.45;;;9.38;;
25009;SDS011;13026;49.486;10.926;2022-07-23T03:50:32;14.27;;;10.73;;
25009;SDS011;13026;49.486;10.926;2022-07-23T03:52:58;11.18;;;9.52;;
25009;SDS011;13026;49.486;10.926;2022-07-23T03:55:23;10.48;;;9.40;;
25009;SDS011;13026;49.486;10.926;2022-07-23T03:57:49;10.77;;;9.65;;
25009;SDS011;13026;49.486;10.926;2022-07-23T04:00:15;11.40;;;10.07;;
25009;SDS011;13026;49.486;10.926;2022-07-23T04:02:44;12.88;;;9.18;;
25009;SDS011;13026;49.486;10.926;2022-07-23T04:05:11;11.65;;;9.30;;
25009;SDS011;13026;49.486;10.926;2022-07-23T04:07:37;11.23;;;8.32;;
25009;SDS011;13026;49.486;10.926;2022-07-23T04:10:03;13.80;;;9.18;;
25009;SDS011;13026;49.486;10.926;2022-07-23T04:12:29;10.90;;;9.00;;
25009;SDS011;13026;49.486;10.926;2022-07-23T04:14:54;11.57;;;9.20;;
25009;SDS011;13026;49.486;10.926;2022-07-23T04:17:20;9.70;;;8.70;;
25009;SDS011;13026;49.486;10.926;2022-07-23T04:19:46;11.95;;;9.45;;
25009;SDS011;13026;49.486;10.926;2022-07-23T04:22:15;10.32;;;9.05;;
25009;SDS011;13026;49.486;10.926;2022-07-23T04:24:41;11.07;;;8.75;;
25009;SDS011;13026;49.486;10.926;2022-07-23T04:27:08;10.43;;;9.38;;
25009;SDS011;13026;49.486;10.926;2022-07-23T04:29:33;10.05;;;9.05;;
25009;SDS011;13026;49.486;10.926;2022-07-23T04:31:59;12.70;;;9.07;;
25009;SDS011;13026;49.486;10.926;2022-07-23T04:34:24;10.05;;;9.05;;
25009;SDS011;13026;49.486;10.926;2022-07-23T04:36:50;12.02;;;9.43;;
25009;SDS011;13026;49.486;10.926;2022-07-23T04:39:16;15.27;;;9.00;;
25009;SDS011;13026;49.486;10.926;2022-07-23T04:41:41;12.30;;;9.13;;
25009;SDS011;13026;49.486;10.926;2022-07-23T04:44:07;10.07;;;8.60;;
25009;SDS011;13026;49.486;10.926;2022-07-23T04:46:33;11.45;;;9.07;;
25009;SDS011;13026;49.486;10.926;2022-07-23T04:48:58;10.85;;;8.48;;
25009;SDS011;13026;49.486;10.926;2022-07-23T04:51:25;13.48;;;9.15;;
25009;SDS011;13026;49.486;10.926;2022-07-23T04:53:51;15.13;;;9.55;;
25009;SDS011;13026;49.486;10.926;2022-07-23T04:56:16;12.15;;;9.30;;
25009;SDS011;13026;49.486;10.926;2022-07-23T04:58:42;15.02;;;8.73;;
25009;SDS011;13026;49.486;10.926;2022-07-23T05:01:08;9.50;;;8.60;;
25009;SDS011;13026;49.486;10.926;2022-07-23T05:03:34;9.85;;;8.50;;
25009;SDS011;13026;49.486;10.926;2022-07-23T05:06:00;12.07;;;8.20;;
25009;SDS011;13026;49.486;10.926;2022-07-23T05:08:26;10.55;;;8.57;;
25009;SDS011;13026;49.486;10.926;2022-07-23T05:10:54;12.38;;;8.18;;
25009;SDS011;13026;49.486;10.926;2022-07-23T05:13:20;10.43;;;8.25;;
25009;SDS011;13026;49.486;10.926;2022-07-23T05:15:49;8.10;;;7.20;;
25009;SDS011;13026;49.486;10.926;2022-07-23T05:18:15;15.10;;;8.00;;
25009;SDS011;13026;49.486;10.926;2022-07-23T05:20:41;7.65;;;6.90;;
25009;SDS011;13026;49.486;10.926;2022-07-23T05:23:07;10.18;;;7.10;;
25009;SDS011;13026;49.486;10.926;2022-07-23T05:25:33;9.73;;;7.82;;
25009;SDS011;13026;49.486;10.926;2022-07-23T05:27:59;8.73;;;7.75;;
25009;SDS011;13026;49.486;10.926;2022-07-23T05:30:25;5.85;;;5.22;;
25009;SDS011;13026;49.486;10.926;2022-07-23T05:32:56;6.80;;;5.25;;
25009;SDS011;13026;49.486;10.926;2022-07-23T05:35:22;6.25;;;4.78;;
25009;SDS011;13026;49.486;10.926;2022-07-23T05:38:16;6.18;;;5.05;;
25009;SDS011;13026;49.486;10.926;2022-07-23T05:40:43;5.38;;;4.88;;
25009;SDS011;13026;49.486;10.926;2022-07-23T05:43:08;6.43;;;4.90;;
25009;SDS011;13026;49.486;10.926;2022-07-23T05:45:34;7.93;;;4.47;;
25009;SDS011;13026;49.486;10.926;2022-07-23T05:48:00;8.88;;;4.05;;
25009;SDS011;13026;49.486;10.926;2022-07-23T05:50:34;4.75;;;4.35;;
25009;SDS011;13026;49.486;10.926;2022-07-23T05:53:06;6.13;;;3.90;;
25009;SDS011;13026;49.486;10.926;2022-07-23T05:55:50;12.48;;;4.47;;
25009;SDS011;13026;49.486;10.926;2022-07-23T05:58:16;6.25;;;4.20;;
25009;SDS011;13026;49.486;10.926;2022-07-23T06:00:41;5.07;;;4.40;;
25009;SDS011;13026;49.486;10.926;2022-07-23T06:03:07;4.40;;;4.00;;
25009;SDS011;13026;49.486;10.926;2022-07-23T06:05:32;5.45;;;4.20;;
25009;SDS011;13026;49.486;10.926;2022-07-23T06:07:58;4.97;;;4.07;;
25009;SDS011;13026;49.486;10.926;2022-07-23T06:10:25;5.43;;;4.65;;
25009;SDS011;13026;49.486;10.926;2022-07-23T06:12:50;6.00;;;4.80;;
25009;SDS011;13026;49.486;10.926;2022-07-23T06:15:17;6.97;;;4.22;;
25009;SDS011;13026;49.486;10.926;2022-07-23T06:17:43;5.20;;;4.70;;
25009;SDS011;13026;49.486;10.926;2022-07-23T06:20:09;7.60;;;4.13;;
25009;SDS011;13026;49.486;10.926;2022-07-23T06:22:37;7.68;;;4.53;;
25009;SDS011;13026;49.486;10.926;2022-07-23T06:25:03;5.22;;;4.72;;
25009;SDS011;13026;49.486;10.926;2022-07-23T06:27:29;10.23;;;4.70;;
25009;SDS011;13026;49.486;10.926;2022-07-23T06:29:55;6.10;;;4.43;;
25009;SDS011;13026;49.486;10.926;2022-07-23T06:32:20;9.07;;;4.65;;
25009;SDS011;13026;49.486;10.926;2022-07-23T06:34:46;7.80;;;4.47;;
25009;SDS011;13026;49.486;10.926;2022-07-23T06:37:12;6.38;;;5.30;;
25009;SDS011;13026;49.486;10.926;2022-07-23T06:39:37;6.78;;;4.80;;
25009;SDS011;13026;49.486;10.926;2022-07-23T06:42:03;10.77;;;5.20;;
25009;SDS011;13026;49.486;10.926;2022-07-23T06:44:37;8.70;;;4.45;;
25009;SDS011;13026;49.486;10.926;2022-07-23T06:47:05;9.35;;;5.30;;
25009;SDS011;13026;49.486;10.926;2022-07-23T06:49:31;9.38;;;4.90;;
25009;SDS011;13026;49.486;10.926;2022-07-23T06:51:57;6.93;;;5.53;;
25009;SDS011;13026;49.486;10.926;2022-07-23T06:54:22;6.40;;;5.63;;
25009;SDS011;13026;49.486;10.926;2022-07-23T06:56:48;7.80;;;5.57;;
25009;SDS011;13026;49.486;10.926;2022-07-23T06:59:13;14.90;;;5.95;;
25009;SDS011;13026;49.486;10.926;2022-07-23T07:01:39;7.00;;;5.85;;
25009;SDS011;13026;49.486;10.926;2022-07-23T07:04:04;7.32;;;6.03;;
25009;SDS011;13026;49.486;10.926;2022-07-23T07:06:30;9.10;;;6.15;;
25009;SDS011;13026;49.486;10.926;2022-07-23T07:08:56;11.25;;;6.22;;
25009;SDS011;13026;49.486;10.926;2022-07-23T07:11:21;7.18;;;5.50;;
25009;SDS011;13026;49.486;10.926;2022-07-23T07:13:47;7.03;;;6.10;;
25009;SDS011;13026;49.486;10.926;2022-07-23T07:16:12;9.00;;;6.38;;
25009;SDS011;13026;49.486;10.926;2022-07-23T07:18:38;6.35;;;5.70;;
25009;SDS011;13026;49.486;10.926;2022-07-23T07:21:03;10.23;;;5.70;;
25009;SDS011;13026;49.486;10.926;2022-07-23T07:23:29;15.23;;;6.07;;
25009;SDS011;13026;49.486;10.926;2022-07-23T07:25:56;7.90;;;6.22;;
25009;SDS011;13026;49.486;10.926;2022-07-23T07:28:21;9.30;;;5.88;;
25009;SDS011;13026;49.486;10.926;2022-07-23T07:30:48;9.77;;;6.55;;
25009;SDS011;13026;49.486;10.926;2022-07-23T07:33:13;8.70;;;5.53;;
25009;SDS011;13026;49.486;10.926;2022-07-23T07:35:39;8.00;;;6.40;;
25009;SDS011;13026;49.486;10.926;2022-07-23T07:38:04;9.52;;;6.65;;
25009;SDS011;13026;49.486;10.926;2022-07-23T07:40:30;8.18;;;6.28;;
25009;SDS011;13026;49.486;10.926;2022-07-23T07:42:55;7.78;;;6.10;;
25009;SDS011;13026;49.486;10.926;2022-07-23T07:45:22;11.45;;;6.43;;
25009;SDS011;13026;49.486;10.926;2022-07-23T07:47:50;9.23;;;7.15;;
25009;SDS011;13026;49.486;10.926;2022-07-23T07:50:16;10.20;;;7.15;;
25009;SDS011;13026;49.486;10.926;2022-07-23T07:52:42;12.43;;;6.88;;
25009;SDS011;13026;49.486;10.926;2022-07-23T07:55:08;12.32;;;7.32;;
25009;SDS011;13026;49.486;10.926;2022-07-23T07:57:34;9.32;;;7.57;;
25009;SDS011;13026;49.486;10.926;2022-07-23T08:00:00;7.57;;;6.35;;
25009;SDS011;13026;49.486;10.926;2022-07-23T08:02:26;7.93;;;6.68;;
25009;SDS011;13026;49.486;10.926;2022-07-23T08:04:52;9.32;;;6.40;;
25009;SDS011;13026;49.486;10.926;2022-07-23T08:07:18;7.20;;;6.35;;
25009;SDS011;13026;49.486;10.926;2022-07-23T08:09:44;13.20;;;6.38;;
25009;SDS011;13026;49.486;10.926;2022-07-23T08:12:09;7.63;;;5.95;;
25009;SDS011;13026;49.486;10.926;2022-07-23T08:14:35;11.60;;;5.78;;
25009;SDS011;13026;49.486;10.926;2022-07-23T08:17:00;6.88;;;5.75;;
25009;SDS011;13026;49.486;10.926;2022-07-23T08:19:26;8.63;;;5.60;;
25009;SDS011;13026;49.486;10.926;2022-07-23T08:21:51;11.32;;;5.68;;
25009;SDS011;13026;49.486;10.926;2022-07-23T08:24:17;7.60;;;6.43;;
25009;SDS011;13026;49.486;10.926;2022-07-23T08:26:42;7.63;;;5.88;;
25009;SDS011;13026;49.486;10.926;2022-07-23T08:29:08;17.02;;;7.25;;
25009;SDS011;13026;49.486;10.926;2022-07-23T08:31:35;9.18;;;6.63;;
25009;SDS011;13026;49.486;10.926;2022-07-23T08:34:00;12.40;;;6.57;;
25009;SDS011;13026;49.486;10.926;2022-07-23T08:36:27;10.82;;;6.45;;
25009;SDS011;13026;49.486;10.926;2022-07-23T08:38:54;6.45;;;5.85;;
25009;SDS011;13026;49.486;10.926;2022-07-23T08:41:20;7.38;;;6.22;;
25009;SDS011;13026;49.486;10.926;2022-07-23T08:43:45;7.80;;;6.70;;
25009;SDS011;13026;49.486;10.926;2022-07-23T08:46:11;10.95;;;7.60;;
25009;SDS011;13026;49.486;10.926;2022-07-23T08:48:38;11.27;;;7.45;;
25009;SDS011;13026;49.486;10.926;2022-07-23T08:51:04;10.32;;;7.40;;
25009;SDS011;13026;49.486;10.926;2022-07-23T08:53:31;7.18;;;6.47;;
25009;SDS011;13026;49.486;10.926;2022-07-23T08:55:59;8.25;;;7.45;;
25009;SDS011;13026;49.486;10.926;2022-07-23T08:58:27;8.48;;;6.75;;
25009;SDS011;13026;49.486;10.926;2022-07-23T09:00:52;7.30;;;6.70;;
25009;SDS011;13026;49.486;10.926;2022-07-23T09:03:19;6.57;;;5.97;;
25009;SDS011;13026;49.486;10.926;2022-07-23T09:05:47;13.07;;;6.55;;
25009;SDS011;13026;49.486;10.926;2022-07-23T09:08:16;5.97;;;5.38;;
25009;SDS011;13026;49.486;10.926;2022-07-23T09:10:43;7.10;;;5.95;;
25009;SDS011;13026;49.486;10.926;2022-07-23T09:16:11;6.57;;;5.68;;
25009;SDS011;13026;49.486;10.926;2022-07-23T09:18:44;6.75;;;5.55;;
25009;SDS011;13026;49.486;10.926;2022-07-23T09:23:47;6.63;;;5.25;;
25009;SDS011;13026;49.486;10.926;2022-07-23T09:26:19;6.07;;;5.45;;
25009;SDS011;13026;49.486;10.926;2022-07-23T09:28:50;9.30;;;5.80;;
25009;SDS011;13026;49.486;10.926;2022-07-23T09:31:17;8.80;;;6.25;;
25009;SDS011;13026;49.486;10.926;2022-07-23T09:33:43;10.00;;;6.22;;
25009;SDS011;13026;49.486;10.926;2022-07-23T09:36:08;11.55;;;6.22;;
25009;SDS011;13026;49.486;10.926;2022-07-23T09:38:34;11.82;;;5.90;;
25009;SDS011;13026;49.486;10.926;2022-07-23T09:41:09;8.63;;;6.30;;
25009;SDS011;13026;49.486;10.926;2022-07-23T09:43:37;8.88;;;7.25;;
25009;SDS011;13026;49.486;10.926;2022-07-23T09:48:48;9.13;;;7.20;;
25009;SDS011;13026;49.486;10.926;2022-07-23T09:51:13;13.27;;;7.65;;
25009;SDS011;13026;49.486;10.926;2022-07-23T09:53:39;9.77;;;7.63;;
25009;SDS011;13026;49.486;10.926;2022-07-23T09:56:05;13.43;;;8.05;;
25009;SDS011;13026;49.486;10.926;2022-07-23T09:58:32;9.27;;;7.70;;
25009;SDS011;13026;49.486;10.926;2022-07-23T10:01:01;15.05;;;8.32;;
25009;SDS011;13026;49.486;10.926;2022-07-23T10:03:26;11.88;;;8.55;;
25009;SDS011;13026;49.486;10.926;2022-07-23T10:06:18;11.35;;;8.55;;
25009;SDS011;13026;49.486;10.926;2022-07-23T10:09:02;12.32;;;7.95;;
25009;SDS011;13026;49.486;10.926;2022-07-23T10:11:47;10.27;;;7.75;;
25009;SDS011;13026;49.486;10.926;2022-07-23T10:14:33;10.48;;;7.30;;
25009;SDS011;13026;49.486;10.926;2022-07-23T10:17:03;8.50;;;7.70;;
25009;SDS011;13026;49.486;10.926;2022-07-23T10:19:29;10.60;;;7.80;;
25009;SDS011;13026;49.486;10.926;2022-07-23T10:21:57;9.23;;;8.23;;
25009;SDS011;13026;49.486;10.926;2022-07-23T10:24:30;11.98;;;8.15;;
25009;SDS011;13026;49.486;10.926;2022-07-23T10:36:07;10.18;;;8.25;;
25009;SDS011;13026;49.486;10.926;2022-07-23T10:38:57;11.77;;;8.95;;
25009;SDS011;13026;49.486;10.926;2022-07-23T10:44:05;15.30;;;9.85;;
25009;SDS011;13026;49.486;10.926;2022-07-23T10:49:28;11.15;;;7.97;;
25009;SDS011;13026;49.486;10.926;2022-07-23T10:54:42;8.98;;;6.85;;
25009;SDS011;13026;49.486;10.926;2022-07-23T10:57:15;11.52;;;7.93;;
25009;SDS011;13026;49.486;10.926;2022-07-23T11:02:26;8.43;;;7.65;;
25009;SDS011;13026;49.486;10.926;2022-07-23T11:04:53;8.35;;;7.40;;
25009;SDS011;13026;49.486;10.926;2022-07-23T11:07:23;8.55;;;7.63;;
25009;SDS011;13026;49.486;10.926;2022-07-23T11:09:49;10.23;;;8.02;;
25009;SDS011;13026;49.486;10.926;2022-07-23T11:17:26;8.73;;;7.30;;
25009;SDS011;13026;49.486;10.926;2022-07-23T11:25:10;8.20;;;7.38;;
25009;SDS011;13026;49.486;10.926;2022-07-23T11:27:45;9.60;;;7.78;;
25009;SDS011;13026;49.486;10.926;2022-07-23T11:35:37;7.80;;;6.90;;
25009;SDS011;13026;49.486;10.926;2022-07-23T11:38:08;7.32;;;6.72;;
25009;SDS011;13026;49.486;10.926;2022-07-23T11:40:43;8.70;;;7.35;;
25009;SDS011;13026;49.486;10.926;2022-07-23T11:43:10;8.52;;;7.40;;
25009;SDS011;13026;49.486;10.926;2022-07-23T11:48:05;7.50;;;6.53;;
25009;SDS011;13026;49.486;10.926;2022-07-23T11:50:32;9.85;;;7.40;;
25009;SDS011;13026;49.486;10.926;2022-07-23T11:52:58;7.65;;;6.85;;
25009;SDS011;13026;49.486;10.926;2022-07-23T11:55:24;7.95;;;6.95;;
25009;SDS011;13026;49.486;10.926;2022-07-23T11:57:50;7.85;;;6.32;;
25009;SDS011;13026;49.486;10.926;2022-07-23T12:00:19;7.63;;;6.65;;
25009;SDS011;13026;49.486;10.926;2022-07-23T12:02:47;7.35;;;6.65;;
25009;SDS011;13026;49.486;10.926;2022-07-23T12:05:15;7.05;;;6.38;;
25009;SDS011;13026;49.486;10.926;2022-07-23T12:07:46;7.35;;;6.65;;
25009;SDS011;13026;49.486;10.926;2022-07-23T12:10:15;7.38;;;6.72;;
25009;SDS011;13026;49.486;10.926;2022-07-23T12:12:49;6.82;;;6.22;;
25009;SDS011;13026;49.486;10.926;2022-07-23T12:15:17;10.55;;;6.75;;
25009;SDS011;13026;49.486;10.926;2022-07-23T12:17:46;7.85;;;7.03;;
25009;SDS011;13026;49.486;10.926;2022-07-23T12:20:14;8.13;;;6.88;;
25009;SDS011;13026;49.486;10.926;2022-07-23T12:22:52;7.45;;;6.75;;
25009;SDS011;13026;49.486;10.926;2022-07-23T12:25:23;8.88;;;6.43;;
25009;SDS011;13026;49.486;10.926;2022-07-23T12:28:10;7.15;;;6.35;;
25009;SDS011;13026;49.486;10.926;2022-07-23T12:33:23;7.40;;;5.68;;
25009;SDS011;13026;49.486;10.926;2022-07-23T12:35:51;7.63;;;6.10;;
25009;SDS011;13026;49.486;10.926;2022-07-23T12:38:36;6.68;;;5.82;;
25009;SDS011;13026;49.486;10.926;2022-07-23T12:41:20;7.28;;;6.40;;
25009;SDS011;13026;49.486;10.926;2022-07-23T12:43:45;7.72;;;6.32;;
25009;SDS011;13026;49.486;10.926;2022-07-23T12:46:18;10.85;;;6.20;;
25009;SDS011;13026;49.486;10.926;2022-07-23T12:51:20;9.43;;;6.28;;
25009;SDS011;13026;49.486;10.926;2022-07-23T12:56:20;11.60;;;6.90;;
25009;SDS011;13026;49.486;10.926;2022-07-23T12:58:57;7.45;;;5.93;;
25009;SDS011;13026;49.486;10.926;2022-07-23T13:01:29;9.15;;;6.00;;
25009;SDS011;13026;49.486;10.926;2022-07-23T13:04:13;7.18;;;6.47;;
25009;SDS011;13026;49.486;10.926;2022-07-23T13:06:53;6.65;;;6.05;;
25009;SDS011;13026;49.486;10.926;2022-07-23T13:09:27;12.60;;;6.35;;
25009;SDS011;13026;49.486;10.926;2022-07-23T13:11:54;7.65;;;5.80;;
25009;SDS011;13026;49.486;10.926;2022-07-23T13:14:21;8.38;;;6.45;;
25009;SDS011;13026;49.486;10.926;2022-07-23T13:16:48;7.22;;;6.28;;
25009;SDS011;13026;49.486;10.926;2022-07-23T13:19:15;7.13;;;6.40;;
25009;SDS011;13026;49.486;10.926;2022-07-23T13:21:40;7.03;;;6.32;;
25009;SDS011;13026;49.486;10.926;2022-07-23T13:24:07;7.15;;;6.43;;
25009;SDS011;13026;49.486;10.926;2022-07-23T13:26:34;13.35;;;6.03;;
25009;SDS011;13026;49.486;10.926;2022-07-23T13:28:59;6.82;;;6.05;;
25009;SDS011;13026;49.486;10.926;2022-07-23T13:31:25;6.70;;;6.10;;
25009;SDS011;13026;49.486;10.926;2022-07-23T13:33:50;7.20;;;6.10;;
25009;SDS011;13026;49.486;10.926;2022-07-23T13:36:16;5.78;;;5.28;;
25009;SDS011;13026;49.486;10.926;2022-07-23T13:38:41;7.85;;;6.03;;
25009;SDS011;13026;49.486;10.926;2022-07-23T13:41:07;6.32;;;5.82;;
25009;SDS011;13026;49.486;10.926;2022-07-23T13:43:33;6.65;;;6.05;;
25009;SDS011;13026;49.486;10.926;2022-07-23T13:45:58;6.70;;;6.10;;
25009;SDS011;13026;49.486;10.926;2022-07-23T13:48:24;6.47;;;5.45;;
25009;SDS011;13026;49.486;10.926;2022-07-23T13:50:50;7.95;;;5.45;;
25009;SDS011;13026;49.486;10.926;2022-07-23T13:53:17;7.53;;;6.07;;
25009;SDS011;13026;49.486;10.926;2022-07-23T13:55:44;6.95;;;5.75;;
25009;SDS011;13026;49.486;10.926;2022-07-23T13:58:11;7.55;;;5.97;;
25009;SDS011;13026;49.486;10.926;2022-07-23T14:00:38;6.28;;;5.55;;
25009;SDS011;13026;49.486;10.926;2022-07-23T14:03:06;8.35;;;6.05;;
25009;SDS011;13026;49.486;10.926;2022-07-23T14:05:32;6.97;;;5.82;;
25009;SDS011;13026;49.486;10.926;2022-07-23T14:07:58;7.53;;;5.72;;
25009;SDS011;13026;49.486;10.926;2022-07-23T14:10:24;6.97;;;5.47;;
25009;SDS011;13026;49.486;10.926;2022-07-23T14:12:50;8.15;;;5.65;;
25009;SDS011;13026;49.486;10.926;2022-07-23T14:15:17;8.50;;;5.93;;
25009;SDS011;13026;49.486;10.926;2022-07-23T14:17:44;6.47;;;5.88;;
25009;SDS011;13026;49.486;10.926;2022-07-23T14:20:11;7.70;;;6.20;;
25009;SDS011;13026;49.486;10.926;2022-07-23T14:22:38;6.25;;;5.53;;
25009;SDS011;13026;49.486;10.926;2022-07-23T14:25:04;10.30;;;5.78;;
25009;SDS011;13026;49.486;10.926;2022-07-23T14:27:31;11.18;;;5.45;;
25009;SDS011;13026;49.486;10.926;2022-07-23T14:29:57;6.60;;;5.45;;
25009;SDS011;13026;49.486;10.926;2022-07-23T14:32:22;5.47;;;4.97;;
25009;SDS011;13026;49.486;10.926;2022-07-23T14:34:48;6.05;;;5.40;;
25009;SDS011;13026;49.486;10.926;2022-07-23T14:37:14;5.93;;;5.30;;
25009;SDS011;13026;49.486;10.926;2022-07-23T14:39:40;6.03;;;5.53;;
25009;SDS011;13026;49.486;10.926;2022-07-23T14:42:06;6.03;;;5.05;;
25009;SDS011;13026;49.486;10.926;2022-07-23T14:44:32;6.43;;;5.00;;
25009;SDS011;13026;49.486;10.926;2022-07-23T14:46:59;7.32;;;5.50;;
25009;SDS011;13026;49.486;10.926;2022-07-23T14:49:25;5.53;;;5.03;;
25009;SDS011;13026;49.486;10.926;2022-07-23T14:51:51;6.05;;;5.10;;
25009;SDS011;13026;49.486;10.926;2022-07-23T14:54:16;9.50;;;5.47;;
25009;SDS011;13026;49.486;10.926;2022-07-23T14:56:42;6.15;;;5.47;;
25009;SDS011;13026;49.486;10.926;2022-07-23T14:59:08;6.40;;;5.80;;
25009;SDS011;13026;49.486;10.926;2022-07-23T15:01:34;8.25;;;5.75;;
25009;SDS011;13026;49.486;10.926;2022-07-23T15:04:00;6.22;;;5.10;;
25009;SDS011;13026;49.486;10.926;2022-07-23T15:06:25;6.38;;;5.63;;
25009;SDS011;13026;49.486;10.926;2022-07-23T15:08:51;5.90;;;5.30;;
25009;SDS011;13026;49.486;10.926;2022-07-23T15:11:17;7.30;;;5.72;;
25009;SDS011;13026;49.486;10.926;2022-07-23T15:13:42;6.22;;;5.50;;
25009;SDS011;13026;49.486;10.926;2022-07-23T15:16:08;8.88;;;4.97;;
25009;SDS011;13026;49.486;10.926;2022-07-23T15:18:34;6.13;;;5.50;;
25009;SDS011;13026;49.486;10.926;2022-07-23T15:20:59;6.78;;;5.25;;
25009;SDS011;13026;49.486;10.926;2022-07-23T15:23:25;6.35;;;5.30;;
25009;SDS011;13026;49.486;10.926;2022-07-23T15:25:51;5.47;;;4.97;;
25009;SDS011;13026;49.486;10.926;2022-07-23T15:28:16;5.65;;;5.07;;